Time,TemperatureF,DewpointF,PressureIn,WindDirection,WindDirectionDegrees,WindSpeedMPH,WindSpeedGustMPH,Humidity,HourlyPrecipIn,Conditions,Clouds,dailyrainin,SolarRadiationWatts/m^2,SoftwareType,DateUTC
2013-08-21 00:00:00,72.0,63.0,-100.00,SW,225,1.0,-999.0,73,-99.99,,,-99.99,0.000000,,2013-08-21 04:00:00,
2013-08-21 00:44:00,72.0,63.0,-100.00,SW,225,1.0,-999.0,73,-99.99,,,-99.99,0.000000,,2013-08-21 04:44:00,
2013-08-21 00:54:00,72.0,63.0,-100.00,SW,225,1.0,-999.0,73,-99.99,,,-99.99,0.000000,,2013-08-21 04:54:00,
2013-08-21 01:00:00,70.0,62.0,-100.00,SW,225,1.0,-999.0,77,-99.99,,,-99.99,0.000000,,2013-08-21 05:00:00,
2013-08-21 01:43:00,70.0,62.0,-100.00,SW,225,1.0,-999.0,77,-99.99,,,-99.99,0.000000,,2013-08-21 05:43:00,
2013-08-21 01:52:00,70.0,62.0,-100.00,SW,225,1.0,-999.0,77,-99.99,,,-99.99,0.000000,,2013-08-21 05:52:00,
2013-08-21 02:00:00,68.0,63.0,-100.00,SW,225,1.0,-999.0,82,-99.99,,,-99.99,0.000000,,2013-08-21 06:00:00,
2013-08-21 02:42:00,68.0,63.0,-100.00,SW,225,1.0,-999.0,82,-99.99,,,-99.99,0.000000,,2013-08-21 06:42:00,
2013-08-21 02:52:00,68.0,63.0,-100.00,SW,225,1.0,-999.0,82,-99.99,,,-99.99,0.000000,,2013-08-21 06:52:00,
2013-08-21 03:00:00,70.0,63.0,-100.00,SSW,202,1.0,-999.0,80,-99.99,,,-99.99,0.000000,,2013-08-21 07:00:00,
2013-08-21 03:42:00,70.0,63.0,-100.00,SSW,202,1.0,-999.0,80,-99.99,,,-99.99,0.000000,,2013-08-21 07:42:00,
2013-08-21 03:53:00,70.0,63.0,-100.00,SSW,202,1.0,-999.0,80,-99.99,,,-99.99,0.000000,,2013-08-21 07:53:00,
2013-08-21 04:00:00,68.0,63.0,-100.00,SW,225,1.0,-999.0,83,-99.99,,,-99.99,0.000000,,2013-08-21 08:00:00,
2013-08-21 04:43:00,68.0,63.0,-100.00,SW,225,1.0,-999.0,83,-99.99,,,-99.99,0.000000,,2013-08-21 08:43:00,
2013-08-21 04:53:00,68.0,63.0,-100.00,SW,225,1.0,-999.0,83,-99.99,,,-99.99,0.000000,,2013-08-21 08:53:00,
2013-08-21 05:00:00,68.0,63.0,-100.00,SW,225,1.0,-999.0,83,-99.99,,,-99.99,0.000000,,2013-08-21 09:00:00,
2013-08-21 05:43:00,68.0,63.0,-100.00,SW,225,1.0,-999.0,83,-99.99,,,-99.99,0.000000,,2013-08-21 09:43:00,
2013-08-21 05:54:00,68.0,63.0,-100.00,SW,225,1.0,-999.0,83,-99.99,,,-99.99,0.000000,,2013-08-21 09:54:00,
2013-08-21 06:00:00,66.0,62.0,-100.00,SW,225,0.0,-999.0,87,-99.99,,,-99.99,0.000000,,2013-08-21 10:00:00,
2013-08-21 06:43:00,66.0,62.0,-100.00,SW,225,0.0,-999.0,87,-99.99,,,-99.99,0.000000,,2013-08-21 10:43:00,
2013-08-21 06:53:00,66.0,62.0,-100.00,SW,225,0.0,-999.0,87,-99.99,,,-99.99,0.000000,,2013-08-21 10:53:00,
2013-08-21 07:00:00,65.0,62.0,-100.00,SW,225,0.0,-999.0,90,-99.99,,,-99.99,0.000000,,2013-08-21 11:00:00,
2013-08-21 07:42:00,65.0,62.0,-100.00,SW,225,0.0,-999.0,90,-99.99,,,-99.99,0.000000,,2013-08-21 11:42:00,
2013-08-21 07:53:00,65.0,62.0,-100.00,SW,225,0.0,-999.0,90,-99.99,,,-99.99,0.000000,,2013-08-21 11:53:00,
2013-08-21 08:00:00,66.0,62.0,-100.00,SW,225,1.0,-999.0,88,-99.99,,,-99.99,0.000000,,2013-08-21 12:00:00,
2013-08-21 08:42:00,66.0,62.0,-100.00,SW,225,1.0,-999.0,88,-99.99,,,-99.99,0.000000,,2013-08-21 12:42:00,
2013-08-21 08:52:00,66.0,62.0,-100.00,SW,225,1.0,-999.0,88,-99.99,,,-99.99,0.000000,,2013-08-21 12:52:00,
2013-08-21 09:00:00,70.0,63.0,-100.00,SSW,202,2.0,-999.0,79,-99.99,,,-99.99,171.679993,,2013-08-21 13:00:00,
2013-08-21 09:42:00,70.0,63.0,-100.00,SSW,202,2.0,-999.0,79,-99.99,,,-99.99,171.679993,,2013-08-21 13:42:00,
2013-08-21 09:52:00,70.0,63.0,-100.00,SSW,202,2.0,-999.0,79,-99.99,,,-99.99,171.679993,,2013-08-21 13:52:00,
2013-08-21 10:00:00,74.0,64.0,-100.00,SSW,202,4.0,-999.0,69,-99.99,,,-99.99,351.480011,,2013-08-21 14:00:00,
2013-08-21 10:42:00,74.0,64.0,-100.00,SSW,202,4.0,-999.0,69,-99.99,,,-99.99,351.480011,,2013-08-21 14:42:00,
2013-08-21 10:52:00,74.0,64.0,-100.00,SSW,202,4.0,-999.0,69,-99.99,,,-99.99,351.480011,,2013-08-21 14:52:00,
2013-08-21 11:00:00,79.0,64.0,-100.00,South,180,6.0,-999.0,61,-99.99,,,-99.99,504.600006,,2013-08-21 15:00:00,
2013-08-21 11:43:00,79.0,64.0,-100.00,South,180,6.0,-999.0,61,-99.99,,,-99.99,504.600006,,2013-08-21 15:43:00,
2013-08-21 11:55:00,79.0,64.0,-100.00,South,180,6.0,-999.0,61,-99.99,,,-99.99,504.600006,,2013-08-21 15:55:00,
2013-08-21 12:00:00,81.0,64.0,-100.00,SSW,202,6.0,-999.0,56,-99.99,,,-99.99,618.280029,,2013-08-21 16:00:00,
2013-08-21 12:43:00,81.0,64.0,-100.00,SSW,202,6.0,-999.0,56,-99.99,,,-99.99,618.280029,,2013-08-21 16:43:00,
2013-08-21 12:53:00,81.0,64.0,-100.00,SSW,202,6.0,-999.0,56,-99.99,,,-99.99,618.280029,,2013-08-21 16:53:00,
2013-08-21 13:00:00,83.0,63.0,-100.00,South,180,8.0,-999.0,51,-99.99,,,-99.99,707.599976,,2013-08-21 17:00:00,
2013-08-21 13:43:00,83.0,63.0,-100.00,South,180,8.0,-999.0,51,-99.99,,,-99.99,707.599976,,2013-08-21 17:43:00,
2013-08-21 13:53:00,83.0,63.0,-100.00,South,180,8.0,-999.0,51,-99.99,,,-99.99,707.599976,,2013-08-21 17:53:00,
2013-08-21 14:00:00,84.0,61.0,-100.00,South,180,8.0,-999.0,46,-99.99,,,-99.99,676.280029,,2013-08-21 18:00:00,
2013-08-21 14:42:00,84.0,61.0,-100.00,South,180,8.0,-999.0,46,-99.99,,,-99.99,676.280029,,2013-08-21 18:42:00,
2013-08-21 14:52:00,84.0,61.0,-100.00,South,180,8.0,-999.0,46,-99.99,,,-99.99,676.280029,,2013-08-21 18:52:00,
2013-08-21 15:00:00,85.0,61.0,-100.00,South,180,7.0,-999.0,43,-99.99,,,-99.99,661.200012,,2013-08-21 19:00:00,
2013-08-21 15:42:00,85.0,61.0,-100.00,South,180,7.0,-999.0,43,-99.99,,,-99.99,661.200012,,2013-08-21 19:42:00,
2013-08-21 15:53:00,85.0,61.0,-100.00,South,180,7.0,-999.0,43,-99.99,,,-99.99,661.200012,,2013-08-21 19:53:00,
2013-08-21 16:00:00,86.0,61.0,-100.00,South,180,7.0,-999.0,44,-99.99,,,-99.99,625.239990,,2013-08-21 20:00:00,
2013-08-21 16:43:00,86.0,61.0,-100.00,South,180,7.0,-999.0,44,-99.99,,,-99.99,625.239990,,2013-08-21 20:43:00,
2013-08-21 16:52:00,86.0,61.0,-100.00,South,180,7.0,-999.0,44,-99.99,,,-99.99,625.239990,,2013-08-21 20:52:00,
2013-08-21 17:00:00,85.0,62.0,-100.00,SSW,202,7.0,-999.0,46,-99.99,,,-99.99,416.440002,,2013-08-21 21:00:00,
2013-08-21 17:45:00,85.0,62.0,-100.00,SSW,202,7.0,-999.0,46,-99.99,,,-99.99,416.440002,,2013-08-21 21:45:00,
2013-08-21 17:55:00,85.0,62.0,-100.00,SSW,202,7.0,-999.0,46,-99.99,,,-99.99,416.440002,,2013-08-21 21:55:00,
2013-08-21 18:00:00,84.0,64.0,-100.00,SSW,202,7.0,-999.0,51,-99.99,,,-99.99,339.880005,,2013-08-21 22:00:00,
2013-08-21 18:44:00,84.0,64.0,-100.00,SSW,202,7.0,-999.0,51,-99.99,,,-99.99,339.880005,,2013-08-21 22:44:00,
2013-08-21 18:53:00,84.0,64.0,-100.00,SSW,202,7.0,-999.0,51,-99.99,,,-99.99,339.880005,,2013-08-21 22:53:00,
2013-08-21 19:00:00,83.0,64.0,-100.00,South,180,6.0,-999.0,54,-99.99,,,-99.99,196.039993,,2013-08-21 23:00:00,
2013-08-21 19:43:00,83.0,64.0,-100.00,South,180,6.0,-999.0,54,-99.99,,,-99.99,196.039993,,2013-08-21 23:43:00,
2013-08-21 19:53:00,83.0,64.0,-100.00,South,180,6.0,-999.0,54,-99.99,,,-99.99,196.039993,,2013-08-21 23:53:00,
2013-08-21 20:00:00,81.0,64.0,-100.00,South,180,5.0,-999.0,55,-99.99,,,-99.99,76.559998,,2013-08-22 00:00:00,
2013-08-21 20:42:00,81.0,64.0,-100.00,South,180,5.0,-999.0,55,-99.99,,,-99.99,76.559998,,2013-08-22 00:42:00,
2013-08-21 20:52:00,81.0,64.0,-100.00,South,180,5.0,-999.0,55,-99.99,,,-99.99,76.559998,,2013-08-22 00:52:00,
2013-08-21 21:00:00,79.0,64.0,-100.00,SSE,157,4.0,-999.0,61,-99.99,,,-99.99,3.480000,,2013-08-22 01:00:00,
2013-08-21 21:42:00,79.0,64.0,-100.00,SSE,157,4.0,-999.0,61,-99.99,,,-99.99,3.480000,,2013-08-22 01:42:00,
2013-08-21 21:52:00,79.0,64.0,-100.00,SSE,157,4.0,-999.0,61,-99.99,,,-99.99,3.480000,,2013-08-22 01:52:00,
2013-08-21 22:00:00,75.0,64.0,-100.00,SSW,202,1.0,-999.0,68,-99.99,,,-99.99,0.000000,,2013-08-22 02:00:00,
2013-08-21 22:52:00,75.0,64.0,-100.00,SSW,202,1.0,-999.0,68,-99.99,,,-99.99,0.000000,,2013-08-22 02:52:00,
2013-08-21 23:00:00,72.0,65.0,-100.00,SW,225,1.0,-999.0,78,-99.99,,,-99.99,0.000000,,2013-08-22 03:00:00,
2013-08-21 23:45:00,72.0,65.0,-100.00,SW,225,1.0,-999.0,78,-99.99,,,-99.99,0.000000,,2013-08-22 03:45:00,
2013-08-21 23:54:00,72.0,65.0,-100.00,SW,225,1.0,-999.0,78,-99.99,,,-99.99,0.000000,,2013-08-22 03:54:00,